createdAt,value
2018-05-14T00:02:10.629Z,83.30
2018-05-14T00:04:38.134Z,81.07
2018-05-14T00:07:08.580Z,81.93
2018-05-14T00:09:36.094Z,84.83
2018-05-14T00:12:03.596Z,78.93
2018-05-14T00:14:31.837Z,83.20
2018-05-14T00:16:59.343Z,78.83
2018-05-14T00:19:26.915Z,77.57
2018-05-14T00:21:54.410Z,80.20
2018-05-14T00:24:22.717Z,80.50
2018-05-14T00:26:50.219Z,79.57
2018-05-14T00:29:17.796Z,78.43
2018-05-14T00:31:45.267Z,77.97
2018-05-14T00:34:12.776Z,76.57
2018-05-14T00:36:40.324Z,76.33
2018-05-14T00:39:07.872Z,77.87
2018-05-14T00:41:35.386Z,80.77
2018-05-14T00:44:02.980Z,79.90
2018-05-14T00:46:30.476Z,83.17
2018-05-14T00:48:57.986Z,77.07
2018-05-14T00:51:25.544Z,77.80
2018-05-14T00:53:53.069Z,77.20
2018-05-14T00:56:20.620Z,75.40
2018-05-14T00:58:48.101Z,78.33
2018-05-14T01:01:15.604Z,77.03
2018-05-14T01:03:43.185Z,73.57
2018-05-14T01:06:10.689Z,74.93
2018-05-14T01:08:38.180Z,75.50
2018-05-14T01:11:05.724Z,73.70
2018-05-14T01:13:33.263Z,77.03
2018-05-14T01:16:00.735Z,73.37
2018-05-14T01:18:29.099Z,75.93
2018-05-14T01:20:56.636Z,73.83
2018-05-14T01:23:24.211Z,66.57
2018-05-14T01:25:51.687Z,65.13
2018-05-14T01:28:19.172Z,67.13
2018-05-14T01:30:47.476Z,67.57
2018-05-14T01:33:14.976Z,65.20
2018-05-14T01:35:42.500Z,68.03
2018-05-14T01:38:09.981Z,66.60
2018-05-14T01:40:37.522Z,68.60
2018-05-14T01:43:05.043Z,65.83
2018-05-14T01:45:32.560Z,62.70
2018-05-14T01:48:00.071Z,65.83
2018-05-14T01:50:27.597Z,66.93
2018-05-14T01:52:55.068Z,64.83
2018-05-14T01:55:22.561Z,62.27
2018-05-14T01:57:50.050Z,60.17
2018-05-14T02:00:18.299Z,62.73
2018-05-14T02:02:45.778Z,62.43
2018-05-14T02:05:13.384Z,62.27
2018-05-14T02:07:40.896Z,62.47
2018-05-14T02:10:08.508Z,59.93
2018-05-14T02:12:36.026Z,60.23
2018-05-14T02:15:03.546Z,58.40
2018-05-14T02:17:31.045Z,59.40
2018-05-14T02:19:59.239Z,61.03
2018-05-14T02:22:27.545Z,60.13
2018-05-14T02:24:55.121Z,57.30
2018-05-14T02:27:23.347Z,56.93
2018-05-14T02:29:50.864Z,55.80
2018-05-14T02:32:18.493Z,55.63
2018-05-14T02:34:46.052Z,53.60
2018-05-14T02:37:13.601Z,54.47
2018-05-14T02:39:41.226Z,56.90
2018-05-14T02:42:08.892Z,55.77
2018-05-14T02:44:36.530Z,52.93
2018-05-14T02:47:04.314Z,56.90
2018-05-14T02:49:31.951Z,56.83
2018-05-14T02:51:59.565Z,57.70
2018-05-14T02:54:27.122Z,55.43
2018-05-14T02:56:54.719Z,54.67
2018-05-14T02:59:22.250Z,57.07
2018-05-14T03:01:49.908Z,53.43
2018-05-14T03:04:18.793Z,54.83
2018-05-14T03:06:46.236Z,53.40
2018-05-14T03:09:13.922Z,55.53
2018-05-14T03:11:42.213Z,54.03
2018-05-14T03:14:10.264Z,54.80
2018-05-14T03:16:37.736Z,53.90
2018-05-14T03:19:05.255Z,57.77
2018-05-14T03:21:32.724Z,57.10
2018-05-14T03:24:00.967Z,54.93
2018-05-14T03:26:28.426Z,57.90
2018-05-14T03:28:55.943Z,54.17
2018-05-14T03:31:23.486Z,56.07
2018-05-14T03:33:50.975Z,56.00
2018-05-14T03:36:18.508Z,53.00
2018-05-14T03:38:46.337Z,58.90
2018-05-14T03:41:14.400Z,54.70
2018-05-14T03:43:42.658Z,55.30
2018-05-14T03:46:10.113Z,56.90
2018-05-14T03:48:37.630Z,58.80
2018-05-14T03:51:05.168Z,59.57
2018-05-14T03:53:32.645Z,58.27
2018-05-14T03:56:00.893Z,58.90
2018-05-14T03:58:28.384Z,55.40
2018-05-14T04:00:56.989Z,56.20
2018-05-14T04:03:24.525Z,56.43
2018-05-14T04:05:51.989Z,57.57
2018-05-14T04:08:20.603Z,57.00
2018-05-14T04:10:48.132Z,56.30
2018-05-14T04:13:15.610Z,59.80
2018-05-14T04:15:44.156Z,53.80
2018-05-14T04:18:11.637Z,55.63
2018-05-14T04:20:39.146Z,51.27
2018-05-14T04:23:06.716Z,51.90
2018-05-14T04:25:34.608Z,50.47
2018-05-14T04:28:02.133Z,52.20
2018-05-14T04:30:30.484Z,50.23
2018-05-14T04:32:58.208Z,51.70
2018-05-14T04:35:25.688Z,51.57
2018-05-14T04:37:53.255Z,52.47
2018-05-14T04:40:21.753Z,50.17
2018-05-14T04:42:49.220Z,50.27
2018-05-14T04:45:16.809Z,50.67
2018-05-14T04:47:44.316Z,52.10
2018-05-14T04:50:11.804Z,47.90
2018-05-14T04:52:39.258Z,48.83
2018-05-14T04:55:06.784Z,48.40
2018-05-14T04:57:35.144Z,49.90
2018-05-14T05:00:02.725Z,46.60
2018-05-14T05:02:31.017Z,47.60
2018-05-14T05:04:59.055Z,46.50
2018-05-14T05:07:26.614Z,47.10
2018-05-14T05:09:54.791Z,48.57
2018-05-14T05:12:22.301Z,47.37
2018-05-14T05:14:50.538Z,45.80
2018-05-14T05:17:17.976Z,47.63
2018-05-14T05:19:45.553Z,43.07
2018-05-14T05:22:13.110Z,46.67
2018-05-14T05:24:40.596Z,44.27
2018-05-14T05:27:08.124Z,46.77
2018-05-14T05:29:35.708Z,45.47
2018-05-14T05:32:03.211Z,45.47
2018-05-14T05:34:30.833Z,49.43
2018-05-14T05:36:58.293Z,45.90
2018-05-14T05:39:25.845Z,49.00
2018-05-14T05:41:53.418Z,45.37
2018-05-14T05:44:21.211Z,46.57
2018-05-14T05:46:48.702Z,44.30
2018-05-14T05:49:16.990Z,46.20
2018-05-14T05:51:44.563Z,45.60
2018-05-14T05:54:12.054Z,45.17
2018-05-14T05:56:39.540Z,44.00
2018-05-14T05:59:07.035Z,46.27
2018-05-14T06:01:35.287Z,45.07
2018-05-14T06:04:02.853Z,42.63
2018-05-14T06:06:30.355Z,43.70
2018-05-14T06:08:57.970Z,40.80
2018-05-14T06:11:25.485Z,43.73
2018-05-14T06:13:53.033Z,41.20
2018-05-14T06:16:20.575Z,42.43
2018-05-14T06:18:48.045Z,43.87
2018-05-14T06:21:15.509Z,45.07
2018-05-14T06:23:43.009Z,43.10
2018-05-14T06:26:10.577Z,41.83
2018-05-14T06:28:38.059Z,42.23
2018-05-14T06:31:05.962Z,43.27
2018-05-14T06:33:33.779Z,41.30
2018-05-14T06:36:01.388Z,40.87
2018-05-14T06:38:28.884Z,41.03
2018-05-14T06:40:56.629Z,41.20
2018-05-14T06:43:23.930Z,40.40
2018-05-14T06:45:51.431Z,40.50
2018-05-14T06:48:19.102Z,37.80
2018-05-14T06:50:46.832Z,40.10
2018-05-14T06:53:14.289Z,38.50
2018-05-14T06:55:41.805Z,39.93
2018-05-14T06:58:09.299Z,39.57
2018-05-14T07:00:36.769Z,39.07
2018-05-14T07:03:05.133Z,38.80
2018-05-14T07:05:32.605Z,37.40
2018-05-14T07:08:00.112Z,37.33
2018-05-14T07:10:27.653Z,34.33
2018-05-14T07:12:55.147Z,33.93
2018-05-14T07:15:22.753Z,34.77
2018-05-14T07:17:50.144Z,36.07
2018-05-14T07:20:17.654Z,34.50
2018-05-14T07:22:45.351Z,34.63
2018-05-14T07:25:12.690Z,34.20
2018-05-14T07:27:40.996Z,35.57
2018-05-14T07:30:09.426Z,32.83
2018-05-14T07:32:37.650Z,34.97
2018-05-14T07:35:05.931Z,31.70
2018-05-14T07:37:33.715Z,31.00
2018-05-14T07:40:02.070Z,32.90
2018-05-14T07:42:29.484Z,33.17
2018-05-14T07:44:56.998Z,31.80
2018-05-14T07:47:24.516Z,33.87
2018-05-14T07:49:52.125Z,31.17
2018-05-14T07:52:19.967Z,30.70
2018-05-14T07:54:47.489Z,31.93
2018-05-14T07:57:15.845Z,31.10
2018-05-14T07:59:43.354Z,30.50
2018-05-14T08:02:11.024Z,28.23
2018-05-14T08:04:39.009Z,29.83
2018-05-14T08:07:06.450Z,29.10
2018-05-14T08:09:34.205Z,27.60
2018-05-14T08:12:01.698Z,28.17
2018-05-14T08:14:29.277Z,30.27
2018-05-14T08:16:56.771Z,28.13
2018-05-14T08:19:24.277Z,26.10
2018-05-14T08:21:51.749Z,29.80
2018-05-14T08:24:19.281Z,27.10
2018-05-14T08:26:47.574Z,27.50
2018-05-14T08:29:15.828Z,28.00
2018-05-14T08:31:44.166Z,28.07
2018-05-14T08:34:12.045Z,28.40
2018-05-14T08:36:39.596Z,27.87
2018-05-14T08:39:07.082Z,27.13
2018-05-14T08:41:34.668Z,24.73
2018-05-14T08:44:02.252Z,27.23
2018-05-14T08:46:29.695Z,27.20
2018-05-14T08:48:57.169Z,26.07
2018-05-14T08:51:24.692Z,26.80
2018-05-14T08:53:52.232Z,26.53
2018-05-14T08:56:19.717Z,29.07
2018-05-14T08:58:47.236Z,28.83
2018-05-14T09:01:15.525Z,30.77
2018-05-14T09:03:44.011Z,28.47
2018-05-14T09:06:11.551Z,26.37
2018-05-14T09:08:39.904Z,24.50
2018-05-14T09:11:07.297Z,23.97
2018-05-14T09:13:35.564Z,24.33
2018-05-14T09:16:03.169Z,21.57
2018-05-14T09:18:30.669Z,22.47
2018-05-14T09:20:58.296Z,20.87
2018-05-14T09:23:25.835Z,22.00
2018-05-14T09:25:53.309Z,22.40
2018-05-14T09:28:20.850Z,21.30
2018-05-14T09:30:48.377Z,21.77
2018-05-14T09:33:15.883Z,20.30
2018-05-14T09:35:43.371Z,21.03
2018-05-14T09:38:11.662Z,21.83
2018-05-14T09:40:39.263Z,21.40
2018-05-14T09:43:06.785Z,21.43
2018-05-14T09:45:34.386Z,20.57
2018-05-14T09:48:02.011Z,22.10
2018-05-14T09:50:29.471Z,21.53
2018-05-14T09:52:57.699Z,21.93
2018-05-14T09:55:25.583Z,20.57
2018-05-14T09:57:53.841Z,20.10
2018-05-14T10:00:21.381Z,18.50
2018-05-14T10:02:49.005Z,18.87
2018-05-14T10:05:16.528Z,20.20
2018-05-14T10:07:43.999Z,18.87
2018-05-14T10:10:11.545Z,18.80
2018-05-14T10:12:40.586Z,18.73
2018-05-14T10:15:08.063Z,18.43
2018-05-14T10:17:35.567Z,18.30
2018-05-14T10:20:03.055Z,18.87
2018-05-14T10:22:30.554Z,16.90
2018-05-14T10:24:58.861Z,15.67
2018-05-14T10:27:27.117Z,17.83
2018-05-14T10:29:55.393Z,16.27
2018-05-14T10:32:22.906Z,17.20
2018-05-14T10:34:50.437Z,16.00
2018-05-14T10:37:18.711Z,14.13
2018-05-14T10:39:46.973Z,13.93
2018-05-14T10:42:14.595Z,14.67
2018-05-14T10:44:42.098Z,13.47
2018-05-14T10:47:09.575Z,12.33
2018-05-14T10:49:37.077Z,12.30
2018-05-14T10:52:04.570Z,12.10
2018-05-14T10:54:32.145Z,11.63
2018-05-14T10:56:59.677Z,11.97
2018-05-14T10:59:27.192Z,11.53
2018-05-14T11:01:54.725Z,11.30
2018-05-14T11:04:22.259Z,10.63
2018-05-14T11:06:49.745Z,9.77
2018-05-14T11:09:17.256Z,9.00
2018-05-14T11:11:44.717Z,10.20
2018-05-14T11:14:12.957Z,9.30
2018-05-14T11:16:40.569Z,10.07
2018-05-14T11:19:08.839Z,9.50
2018-05-14T11:21:37.082Z,9.87
2018-05-14T11:24:04.649Z,8.90
2018-05-14T11:26:32.133Z,8.43
2018-05-14T11:28:59.671Z,8.50
2018-05-14T11:31:27.149Z,9.20
2018-05-14T11:33:54.649Z,8.80
2018-05-14T11:36:22.357Z,6.97
2018-05-14T11:38:49.811Z,7.70
2018-05-14T11:41:17.334Z,7.10
2018-05-14T11:43:45.650Z,6.20
2018-05-14T11:46:13.131Z,6.73
2018-05-14T11:48:40.694Z,6.57
2018-05-14T11:51:08.217Z,5.77
2018-05-14T11:53:35.701Z,5.83
2018-05-14T11:56:03.964Z,4.50
2018-05-14T11:58:32.253Z,4.27
2018-05-14T12:01:00.615Z,5.00
2018-05-14T12:03:28.187Z,3.97
2018-05-14T12:05:55.654Z,3.90
2018-05-14T12:08:23.931Z,3.87
2018-05-14T12:10:51.374Z,4.43
2018-05-14T12:13:18.894Z,3.77
2018-05-14T12:15:46.384Z,4.10
2018-05-14T12:18:13.999Z,4.00
2018-05-14T12:20:41.373Z,4.57
2018-05-14T12:23:09.356Z,3.90
2018-05-14T12:25:37.684Z,4.40
2018-05-14T12:28:05.076Z,4.07
2018-05-14T12:30:32.680Z,4.20
2018-05-14T12:33:00.466Z,3.83
2018-05-14T12:35:27.984Z,4.17
2018-05-14T12:37:55.492Z,4.60
2018-05-14T12:40:22.941Z,4.03
2018-05-14T12:42:50.455Z,4.23
2018-05-14T12:45:18.813Z,3.67
2018-05-14T12:47:46.958Z,3.70
2018-05-14T12:50:14.464Z,4.03
2018-05-14T12:52:42.790Z,4.00
2018-05-14T12:55:11.020Z,3.63
2018-05-14T12:57:38.523Z,4.20
2018-05-14T13:00:06.019Z,4.20
2018-05-14T13:02:33.520Z,3.80
2018-05-14T13:05:01.783Z,3.77
2018-05-14T13:07:29.282Z,3.63
2018-05-14T13:09:56.795Z,4.27
2018-05-14T13:12:24.607Z,4.10
2018-05-14T13:14:52.874Z,3.47
2018-05-14T13:17:21.204Z,3.53
2018-05-14T13:19:49.578Z,4.00
2018-05-14T13:22:17.122Z,3.80
2018-05-14T13:24:44.591Z,3.90
2018-05-14T13:27:12.105Z,4.20
2018-05-14T13:29:39.611Z,3.60
2018-05-14T13:32:07.190Z,3.63
2018-05-14T13:34:34.621Z,3.07
2018-05-14T13:37:02.901Z,3.30
2018-05-14T13:39:30.413Z,3.17
2018-05-14T13:41:57.867Z,4.13
2018-05-14T13:44:25.545Z,3.47
2018-05-14T13:46:52.968Z,4.40
2018-05-14T13:49:20.528Z,3.13
2018-05-14T13:51:48.068Z,3.70
2018-05-14T13:54:15.613Z,4.13
2018-05-14T13:56:43.041Z,4.73
2018-05-14T13:59:10.904Z,3.70
2018-05-14T14:01:38.404Z,3.43
2018-05-14T14:04:05.974Z,3.53
2018-05-14T14:06:33.665Z,4.60
2018-05-14T14:09:01.990Z,4.57
2018-05-14T14:11:29.564Z,3.93
2018-05-14T14:13:57.022Z,4.87
2018-05-14T14:16:24.497Z,4.50
2018-05-14T14:18:52.032Z,4.97
2018-05-14T14:21:20.346Z,4.93
2018-05-14T14:23:48.160Z,4.20
2018-05-14T14:26:16.370Z,4.70
2018-05-14T14:28:43.866Z,4.67
2018-05-14T14:31:11.502Z,4.70
2018-05-14T14:33:39.002Z,4.17
2018-05-14T14:36:06.529Z,4.20
2018-05-14T14:38:34.088Z,5.13
2018-05-14T14:41:01.777Z,5.70
2018-05-14T14:43:29.968Z,4.90
2018-05-14T14:45:57.575Z,5.10
2018-05-14T14:48:24.969Z,4.10
2018-05-14T14:50:52.520Z,4.80
2018-05-14T14:53:20.075Z,5.03
2018-05-14T14:55:47.595Z,4.30
2018-05-14T14:58:15.075Z,4.80
2018-05-14T15:00:42.550Z,4.43
2018-05-14T15:03:10.058Z,4.73
2018-05-14T15:05:38.778Z,3.93
2018-05-14T15:08:06.265Z,3.97
2018-05-14T15:10:34.545Z,4.00
2018-05-14T15:13:02.038Z,4.73
2018-05-14T15:15:29.513Z,4.70
2018-05-14T15:17:57.034Z,4.70
2018-05-14T15:20:24.508Z,5.23
2018-05-14T15:22:52.828Z,4.83
2018-05-14T15:25:20.314Z,4.07
2018-05-14T15:27:47.935Z,4.40
2018-05-14T15:30:15.563Z,4.53
2018-05-14T15:32:43.121Z,4.30
2018-05-14T15:35:10.686Z,4.30
2018-05-14T15:37:38.133Z,4.67
2018-05-14T15:40:06.412Z,4.60
2018-05-14T15:42:33.904Z,3.97
2018-05-14T15:45:01.415Z,4.87
2018-05-14T15:47:29.302Z,4.57
2018-05-14T15:49:56.827Z,4.20
2018-05-14T15:52:24.325Z,4.80
2018-05-14T15:54:52.532Z,3.97
2018-05-14T15:57:20.063Z,4.13
2018-05-14T15:59:47.572Z,4.23
2018-05-14T16:02:15.908Z,4.30
2018-05-14T16:04:43.414Z,4.53
2018-05-14T16:07:10.898Z,4.67
2018-05-14T16:09:39.346Z,3.80
2018-05-14T16:12:06.808Z,4.23
2018-05-14T16:14:34.872Z,4.00
2018-05-14T16:17:02.323Z,4.27
2018-05-14T16:19:29.838Z,4.70
2018-05-14T16:21:58.336Z,4.43
2018-05-14T16:24:26.595Z,4.80
2018-05-14T16:26:54.029Z,4.67
2018-05-14T16:29:21.490Z,4.57
2018-05-14T16:31:49.004Z,4.63
2018-05-14T16:34:17.257Z,4.93
2018-05-14T16:36:44.793Z,4.70
2018-05-14T16:39:12.395Z,4.73
2018-05-14T16:41:40.706Z,4.27
2018-05-14T16:44:08.199Z,4.27
2018-05-14T16:46:35.731Z,4.20
2018-05-14T16:49:03.209Z,4.80
2018-05-14T16:51:30.713Z,4.50
2018-05-14T16:53:58.191Z,4.27
2018-05-14T16:56:26.623Z,4.83
2018-05-14T16:58:54.122Z,5.30
2018-05-14T17:01:22.082Z,4.63
2018-05-14T17:03:49.534Z,4.70
2018-05-14T17:06:17.042Z,4.93
2018-05-14T17:08:45.267Z,4.97
2018-05-14T17:11:13.113Z,4.50
2018-05-14T17:13:41.415Z,5.30
2018-05-14T17:16:08.891Z,4.80
2018-05-14T17:18:36.411Z,4.67
2018-05-14T17:21:04.880Z,4.57
2018-05-14T17:23:33.188Z,5.40
2018-05-14T17:26:01.904Z,4.50
2018-05-14T17:28:29.510Z,5.40
2018-05-14T17:30:58.477Z,5.43
2018-05-14T17:33:25.957Z,5.10
2018-05-14T17:35:53.460Z,5.73
2018-05-14T17:38:21.732Z,4.57
2018-05-14T17:40:49.248Z,5.80
2018-05-14T17:43:16.834Z,5.53
2018-05-14T17:45:44.400Z,5.07
2018-05-14T17:48:12.214Z,5.13
2018-05-14T17:50:39.776Z,5.53
2018-05-14T17:53:07.270Z,5.30
2018-05-14T17:55:34.816Z,5.67
2018-05-14T17:58:02.360Z,5.80
2018-05-14T18:00:29.848Z,5.27
2018-05-14T18:02:57.332Z,5.90
2018-05-14T18:05:24.944Z,5.57
2018-05-14T18:07:52.580Z,5.13
2018-05-14T18:10:20.069Z,5.00
2018-05-14T18:12:48.376Z,4.80
2018-05-14T18:15:15.938Z,5.10
2018-05-14T18:17:44.221Z,5.60
2018-05-14T18:20:12.497Z,5.30
2018-05-14T18:22:40.074Z,5.30
2018-05-14T18:25:07.553Z,5.00
2018-05-14T18:27:35.837Z,5.00
2018-05-14T18:30:03.568Z,5.17
2018-05-14T18:32:31.425Z,5.77
2018-05-14T18:34:58.932Z,4.90
2018-05-14T18:37:26.409Z,4.57
2018-05-14T18:39:54.003Z,6.03
2018-05-14T18:42:21.561Z,4.67
2018-05-14T18:44:49.067Z,5.50
2018-05-14T18:47:16.555Z,5.93
2018-05-14T18:49:44.441Z,5.00
2018-05-14T18:52:12.024Z,5.33
2018-05-14T18:54:40.214Z,5.60
2018-05-14T18:57:08.590Z,5.07
2018-05-14T18:59:36.116Z,5.67
2018-05-14T19:02:04.444Z,5.13
2018-05-14T19:04:31.891Z,4.97
2018-05-14T19:06:59.406Z,5.20
2018-05-14T19:09:27.164Z,5.40
2018-05-14T19:11:54.940Z,5.10
2018-05-14T19:14:22.496Z,5.40
2018-05-14T19:16:49.983Z,5.00
2018-05-14T19:19:17.634Z,5.03
2018-05-14T19:21:45.327Z,5.33
2018-05-14T19:24:12.846Z,6.67
2018-05-14T19:26:40.351Z,5.47
2018-05-14T19:29:07.904Z,5.67
2018-05-14T19:31:35.500Z,5.80
2018-05-14T19:34:03.351Z,5.80
2018-05-14T19:36:30.870Z,4.93
2018-05-14T19:38:59.250Z,5.60
2018-05-14T19:41:27.573Z,5.13
2018-05-14T19:43:55.844Z,5.20
2018-05-14T19:46:23.410Z,4.90
2018-05-14T19:48:52.044Z,5.17
2018-05-14T19:51:19.773Z,5.30
2018-05-14T19:53:47.979Z,5.10
2018-05-14T19:56:16.544Z,5.60
2018-05-14T19:58:44.005Z,5.27
2018-05-14T20:01:11.676Z,5.33
2018-05-14T20:03:39.188Z,5.20
2018-05-14T20:06:06.716Z,5.03
2018-05-14T20:08:34.268Z,4.90
2018-05-14T20:11:01.728Z,5.27
2018-05-14T20:13:29.325Z,5.27
2018-05-14T20:15:57.047Z,5.50
2018-05-14T20:18:24.548Z,4.90
2018-05-14T20:20:52.074Z,5.00
2018-05-14T20:23:19.707Z,4.90
2018-05-14T20:25:47.271Z,5.53
2018-05-14T20:28:15.613Z,4.90
2018-05-14T20:30:43.221Z,5.60
2018-05-14T20:33:10.674Z,5.27
2018-05-14T20:35:38.184Z,5.83
2018-05-14T20:38:05.649Z,5.77
2018-05-14T20:40:33.240Z,5.20
2018-05-14T20:43:01.585Z,5.20
2018-05-14T20:45:29.077Z,4.87
2018-05-14T20:47:56.585Z,5.47
2018-05-14T20:50:24.874Z,5.40
2018-05-14T20:52:52.977Z,5.70
2018-05-14T20:55:20.549Z,6.37
2018-05-14T20:57:48.739Z,5.50
2018-05-14T21:00:16.226Z,5.97
2018-05-14T21:02:43.720Z,5.60
2018-05-14T21:05:11.305Z,5.23
2018-05-14T21:07:38.788Z,5.47
2018-05-14T21:10:07.105Z,5.87
2018-05-14T21:12:34.539Z,5.10
2018-05-14T21:15:02.013Z,5.33
2018-05-14T21:17:29.501Z,5.97
2018-05-14T21:19:57.796Z,5.53
2018-05-14T21:22:26.043Z,4.30
2018-05-14T21:24:53.494Z,6.10
2018-05-14T21:27:21.048Z,5.30
2018-05-14T21:29:48.507Z,5.53
2018-05-14T21:32:16.036Z,5.27
2018-05-14T21:34:43.608Z,5.73
2018-05-14T21:37:11.099Z,5.67
2018-05-14T21:39:38.662Z,5.50
2018-05-14T21:42:06.207Z,5.37
2018-05-14T21:44:33.737Z,5.53
2018-05-14T21:47:02.259Z,5.90
2018-05-14T21:49:29.702Z,7.07
2018-05-14T21:51:57.323Z,6.10
2018-05-14T21:54:24.789Z,6.10
2018-05-14T21:56:52.358Z,5.50
2018-05-14T21:59:19.786Z,6.00
2018-05-14T22:01:47.240Z,5.50
2018-05-14T22:04:14.740Z,5.40
2018-05-14T22:06:42.249Z,5.70
2018-05-14T22:09:09.746Z,5.40
2018-05-14T22:11:37.280Z,5.70
2018-05-14T22:14:05.487Z,5.73
2018-05-14T22:16:32.968Z,5.20
2018-05-14T22:19:01.481Z,4.90
2018-05-14T22:21:28.925Z,5.63
2018-05-14T22:23:56.485Z,4.90
2018-05-14T22:26:23.976Z,4.60
2018-05-14T22:28:52.274Z,4.60
2018-05-14T22:31:20.002Z,5.20
2018-05-14T22:33:47.518Z,4.83
2018-05-14T22:36:14.975Z,4.60
2018-05-14T22:38:42.560Z,4.60
2018-05-14T22:41:10.020Z,4.47
2018-05-14T22:43:37.493Z,5.37
2018-05-14T22:46:04.997Z,5.33
2018-05-14T22:48:33.278Z,5.20
2018-05-14T22:51:00.839Z,5.20
2018-05-14T22:53:29.158Z,6.27
2018-05-14T22:55:56.672Z,4.53
2018-05-14T22:58:24.172Z,4.67
2018-05-14T23:00:52.415Z,4.60
2018-05-14T23:03:19.974Z,5.80
2018-05-14T23:05:47.512Z,5.60
2018-05-14T23:08:15.001Z,5.30
2018-05-14T23:10:43.247Z,5.07
2018-05-14T23:13:10.793Z,4.87
2018-05-14T23:15:38.297Z,4.80
2018-05-14T23:18:05.830Z,5.40
2018-05-14T23:20:34.042Z,4.60
2018-05-14T23:23:01.607Z,6.60
2018-05-14T23:25:29.131Z,7.20
2018-05-14T23:27:56.588Z,5.80
2018-05-14T23:30:24.187Z,4.90
2018-05-14T23:32:51.697Z,5.60
2018-05-14T23:35:19.201Z,5.30
2018-05-14T23:37:46.669Z,4.70
2018-05-14T23:40:14.273Z,5.50
2018-05-14T23:42:41.835Z,5.27
2018-05-14T23:45:09.434Z,5.27
2018-05-14T23:47:37.725Z,5.00
2018-05-14T23:50:05.267Z,5.37
2018-05-14T23:52:33.782Z,5.77
2018-05-14T23:55:01.267Z,5.20
2018-05-14T23:57:28.816Z,5.00
2018-05-14T23:59:56.282Z,6.33
